sensor_id;sensor_type;location;lat;lon;timestamp;P1;durP1;ratioP1;P2;durP2;ratioP2
62353;SDS011;48391;49.184;2.418;2023-12-04T00:01:35;3.45;;;2.63;;
62353;SDS011;48391;49.184;2.418;2023-12-04T00:04:01;7.55;;;4.65;;
62353;SDS011;48391;49.184;2.418;2023-12-04T00:06:27;7.32;;;4.03;;
62353;SDS011;48391;49.184;2.418;2023-12-04T00:08:53;6.40;;;3.95;;
62353;SDS011;48391;49.184;2.418;2023-12-04T00:11:19;7.53;;;3.22;;
62353;SDS011;48391;49.184;2.418;2023-12-04T00:13:45;8.38;;;4.30;;
62353;SDS011;48391;49.184;2.418;2023-12-04T00:16:11;5.68;;;4.00;;
62353;SDS011;48391;49.184;2.418;2023-12-04T00:18:37;6.03;;;3.42;;
62353;SDS011;48391;49.184;2.418;2023-12-04T00:21:03;5.28;;;3.45;;
62353;SDS011;48391;49.184;2.418;2023-12-04T00:23:29;4.97;;;3.42;;
62353;SDS011;48391;49.184;2.418;2023-12-04T00:25:55;7.70;;;4.90;;
62353;SDS011;48391;49.184;2.418;2023-12-04T00:28:21;5.93;;;3.55;;
62353;SDS011;48391;49.184;2.418;2023-12-04T00:30:47;4.93;;;3.10;;
62353;SDS011;48391;49.184;2.418;2023-12-04T00:33:13;6.00;;;3.60;;
62353;SDS011;48391;49.184;2.418;2023-12-04T00:35:39;4.43;;;2.22;;
62353;SDS011;48391;49.184;2.418;2023-12-04T00:38:05;5.93;;;3.78;;
62353;SDS011;48391;49.184;2.418;2023-12-04T00:40:31;4.85;;;3.55;;
62353;SDS011;48391;49.184;2.418;2023-12-04T00:42:57;7.13;;;3.95;;
62353;SDS011;48391;49.184;2.418;2023-12-04T00:45:23;5.80;;;3.50;;
62353;SDS011;48391;49.184;2.418;2023-12-04T00:47:49;5.53;;;3.08;;
62353;SDS011;48391;49.184;2.418;2023-12-04T00:50:15;5.05;;;3.53;;
62353;SDS011;48391;49.184;2.418;2023-12-04T00:52:41;6.32;;;3.70;;
62353;SDS011;48391;49.184;2.418;2023-12-04T00:55:07;6.15;;;4.35;;
62353;SDS011;48391;49.184;2.418;2023-12-04T00:57:33;5.13;;;3.17;;
62353;SDS011;48391;49.184;2.418;2023-12-04T00:59:59;9.15;;;3.65;;
62353;SDS011;48391;49.184;2.418;2023-12-04T01:02:26;7.93;;;3.63;;
62353;SDS011;48391;49.184;2.418;2023-12-04T01:04:52;5.45;;;3.20;;
62353;SDS011;48391;49.184;2.418;2023-12-04T01:07:18;7.22;;;3.97;;
62353;SDS011;48391;49.184;2.418;2023-12-04T01:09:44;6.88;;;4.15;;
62353;SDS011;48391;49.184;2.418;2023-12-04T01:12:10;5.03;;;2.95;;
62353;SDS011;48391;49.184;2.418;2023-12-04T01:14:36;6.15;;;3.50;;
62353;SDS011;48391;49.184;2.418;2023-12-04T01:17:03;6.45;;;3.50;;
62353;SDS011;48391;49.184;2.418;2023-12-04T01:19:29;5.28;;;3.53;;
62353;SDS011;48391;49.184;2.418;2023-12-04T01:21:55;5.13;;;3.00;;
62353;SDS011;48391;49.184;2.418;2023-12-04T01:24:21;4.93;;;3.35;;
62353;SDS011;48391;49.184;2.418;2023-12-04T01:26:47;4.63;;;2.75;;
62353;SDS011;48391;49.184;2.418;2023-12-04T01:29:13;5.43;;;2.70;;
62353;SDS011;48391;49.184;2.418;2023-12-04T01:31:39;4.82;;;3.25;;
62353;SDS011;48391;49.184;2.418;2023-12-04T01:34:05;3.85;;;2.63;;
62353;SDS011;48391;49.184;2.418;2023-12-04T01:36:31;5.63;;;3.10;;
62353;SDS011;48391;49.184;2.418;2023-12-04T01:38:57;4.90;;;3.30;;
62353;SDS011;48391;49.184;2.418;2023-12-04T01:41:23;4.07;;;2.20;;
62353;SDS011;48391;49.184;2.418;2023-12-04T01:43:49;4.97;;;2.95;;
62353;SDS011;48391;49.184;2.418;2023-12-04T01:46:15;3.60;;;2.38;;
62353;SDS011;48391;49.184;2.418;2023-12-04T01:48:43;3.90;;;2.10;;
62353;SDS011;48391;49.184;2.418;2023-12-04T01:51:10;4.60;;;2.85;;
62353;SDS011;48391;49.184;2.418;2023-12-04T01:53:37;4.93;;;2.70;;
62353;SDS011;48391;49.184;2.418;2023-12-04T01:56:04;3.35;;;2.72;;
62353;SDS011;48391;49.184;2.418;2023-12-04T01:58:31;4.57;;;3.25;;
62353;SDS011;48391;49.184;2.418;2023-12-04T02:00:57;4.30;;;2.65;;
62353;SDS011;48391;49.184;2.418;2023-12-04T02:03:24;3.70;;;2.50;;
62353;SDS011;48391;49.184;2.418;2023-12-04T02:05:50;4.25;;;3.17;;
62353;SDS011;48391;49.184;2.418;2023-12-04T02:10:47;4.32;;;2.67;;
62353;SDS011;48391;49.184;2.418;2023-12-04T02:13:13;3.67;;;2.47;;
62353;SDS011;48391;49.184;2.418;2023-12-04T02:15:39;3.38;;;2.63;;
62353;SDS011;48391;49.184;2.418;2023-12-04T02:18:05;4.88;;;2.60;;
62353;SDS011;48391;49.184;2.418;2023-12-04T02:20:35;4.90;;;3.25;;
62353;SDS011;48391;49.184;2.418;2023-12-04T02:23:01;4.65;;;2.30;;
62353;SDS011;48391;49.184;2.418;2023-12-04T02:25:28;4.40;;;2.88;;
62353;SDS011;48391;49.184;2.418;2023-12-04T02:27:55;4.65;;;2.35;;
62353;SDS011;48391;49.184;2.418;2023-12-04T02:30:22;2.45;;;2.05;;
62353;SDS011;48391;49.184;2.418;2023-12-04T02:32:49;4.45;;;2.83;;
62353;SDS011;48391;49.184;2.418;2023-12-04T02:35:16;3.60;;;2.08;;
62353;SDS011;48391;49.184;2.418;2023-12-04T02:37:44;5.10;;;2.42;;
62353;SDS011;48391;49.184;2.418;2023-12-04T02:40:10;3.20;;;1.90;;
62353;SDS011;48391;49.184;2.418;2023-12-04T02:42:36;2.45;;;1.70;;
62353;SDS011;48391;49.184;2.418;2023-12-04T02:45:02;3.72;;;2.45;;
62353;SDS011;48391;49.184;2.418;2023-12-04T02:47:29;4.20;;;2.95;;
62353;SDS011;48391;49.184;2.418;2023-12-04T02:49:55;1.98;;;1.77;;
62353;SDS011;48391;49.184;2.418;2023-12-04T02:52:21;3.08;;;2.50;;
62353;SDS011;48391;49.184;2.418;2023-12-04T02:54:47;5.38;;;3.28;;
62353;SDS011;48391;49.184;2.418;2023-12-04T02:57:13;3.60;;;2.20;;
62353;SDS011;48391;49.184;2.418;2023-12-04T02:59:39;3.20;;;2.15;;
62353;SDS011;48391;49.184;2.418;2023-12-04T03:02:05;3.15;;;1.98;;
62353;SDS011;48391;49.184;2.418;2023-12-04T03:04:31;3.03;;;2.10;;
62353;SDS011;48391;49.184;2.418;2023-12-04T03:06:57;2.75;;;2.20;;
62353;SDS011;48391;49.184;2.418;2023-12-04T03:09:23;3.38;;;2.22;;
62353;SDS011;48391;49.184;2.418;2023-12-04T03:11:49;2.53;;;2.17;;
62353;SDS011;48391;49.184;2.418;2023-12-04T03:14:15;4.82;;;2.95;;
62353;SDS011;48391;49.184;2.418;2023-12-04T03:16:41;3.83;;;2.13;;
62353;SDS011;48391;49.184;2.418;2023-12-04T03:19:07;5.00;;;2.95;;
62353;SDS011;48391;49.184;2.418;2023-12-04T03:21:33;2.10;;;1.58;;
62353;SDS011;48391;49.184;2.418;2023-12-04T03:23:59;2.50;;;2.08;;
62353;SDS011;48391;49.184;2.418;2023-12-04T03:26:25;3.70;;;2.45;;
62353;SDS011;48391;49.184;2.418;2023-12-04T03:28:51;3.22;;;2.00;;
62353;SDS011;48391;49.184;2.418;2023-12-04T03:31:17;2.83;;;1.98;;
62353;SDS011;48391;49.184;2.418;2023-12-04T03:33:43;3.53;;;2.72;;
62353;SDS011;48391;49.184;2.418;2023-12-04T03:36:09;2.88;;;1.90;;
62353;SDS011;48391;49.184;2.418;2023-12-04T03:38:35;6.15;;;2.70;;
62353;SDS011;48391;49.184;2.418;2023-12-04T03:41:01;2.72;;;2.33;;
62353;SDS011;48391;49.184;2.418;2023-12-04T03:43:27;3.83;;;2.10;;
62353;SDS011;48391;49.184;2.418;2023-12-04T03:45:53;4.88;;;2.60;;
62353;SDS011;48391;49.184;2.418;2023-12-04T03:48:19;2.90;;;2.30;;
62353;SDS011;48391;49.184;2.418;2023-12-04T03:50:45;5.72;;;3.58;;
62353;SDS011;48391;49.184;2.418;2023-12-04T03:53:11;4.38;;;2.65;;
62353;SDS011;48391;49.184;2.418;2023-12-04T03:55:37;2.40;;;2.17;;
62353;SDS011;48391;49.184;2.418;2023-12-04T03:58:03;3.67;;;2.50;;
62353;SDS011;48391;49.184;2.418;2023-12-04T04:00:30;4.85;;;3.05;;
62353;SDS011;48391;49.184;2.418;2023-12-04T04:02:56;8.20;;;3.08;;
62353;SDS011;48391;49.184;2.418;2023-12-04T04:05:22;4.10;;;3.15;;
62353;SDS011;48391;49.184;2.418;2023-12-04T04:07:48;4.25;;;2.53;;
62353;SDS011;48391;49.184;2.418;2023-12-04T04:10:14;2.58;;;2.30;;
62353;SDS011;48391;49.184;2.418;2023-12-04T04:12:40;4.47;;;2.83;;
62353;SDS011;48391;49.184;2.418;2023-12-04T04:15:06;4.32;;;2.42;;
62353;SDS011;48391;49.184;2.418;2023-12-04T04:17:32;4.57;;;3.05;;
62353;SDS011;48391;49.184;2.418;2023-12-04T04:19:58;5.32;;;3.22;;
62353;SDS011;48391;49.184;2.418;2023-12-04T04:22:24;3.90;;;2.42;;
62353;SDS011;48391;49.184;2.418;2023-12-04T04:24:50;5.20;;;3.40;;
62353;SDS011;48391;49.184;2.418;2023-12-04T04:27:16;3.60;;;2.67;;
62353;SDS011;48391;49.184;2.418;2023-12-04T04:29:42;2.83;;;2.47;;
62353;SDS011;48391;49.184;2.418;2023-12-04T04:32:08;3.80;;;2.50;;
62353;SDS011;48391;49.184;2.418;2023-12-04T04:34:34;4.25;;;2.53;;
62353;SDS011;48391;49.184;2.418;2023-12-04T04:37:00;5.53;;;3.03;;
62353;SDS011;48391;49.184;2.418;2023-12-04T04:39:26;2.90;;;2.13;;
62353;SDS011;48391;49.184;2.418;2023-12-04T04:41:52;3.17;;;2.15;;
62353;SDS011;48391;49.184;2.418;2023-12-04T04:44:18;4.20;;;2.13;;
62353;SDS011;48391;49.184;2.418;2023-12-04T04:46:44;5.20;;;3.83;;
62353;SDS011;48391;49.184;2.418;2023-12-04T04:49:10;4.53;;;2.67;;
62353;SDS011;48391;49.184;2.418;2023-12-04T04:51:36;5.55;;;2.28;;
62353;SDS011;48391;49.184;2.418;2023-12-04T04:54:02;4.13;;;2.60;;
62353;SDS011;48391;49.184;2.418;2023-12-04T04:56:29;5.15;;;3.92;;
62353;SDS011;48391;49.184;2.418;2023-12-04T04:58:55;3.67;;;3.13;;
62353;SDS011;48391;49.184;2.418;2023-12-04T05:01:21;7.25;;;3.15;;
62353;SDS011;48391;49.184;2.418;2023-12-04T05:03:47;3.88;;;2.60;;
62353;SDS011;48391;49.184;2.418;2023-12-04T05:06:13;3.80;;;2.67;;
62353;SDS011;48391;49.184;2.418;2023-12-04T05:08:39;3.50;;;2.45;;
62353;SDS011;48391;49.184;2.418;2023-12-04T05:11:05;3.55;;;2.60;;
62353;SDS011;48391;49.184;2.418;2023-12-04T05:13:31;5.38;;;3.13;;
62353;SDS011;48391;49.184;2.418;2023-12-04T05:15:57;4.25;;;2.92;;
62353;SDS011;48391;49.184;2.418;2023-12-04T05:18:23;3.75;;;3.20;;
62353;SDS011;48391;49.184;2.418;2023-12-04T05:20:50;5.25;;;3.15;;
62353;SDS011;48391;49.184;2.418;2023-12-04T05:23:16;4.43;;;2.53;;
62353;SDS011;48391;49.184;2.418;2023-12-04T05:25:42;3.42;;;2.35;;
62353;SDS011;48391;49.184;2.418;2023-12-04T05:28:08;5.93;;;3.15;;
62353;SDS011;48391;49.184;2.418;2023-12-04T05:30:34;3.28;;;2.30;;
62353;SDS011;48391;49.184;2.418;2023-12-04T05:33:00;5.47;;;3.35;;
62353;SDS011;48391;49.184;2.418;2023-12-04T05:35:27;6.53;;;3.35;;
62353;SDS011;48391;49.184;2.418;2023-12-04T05:37:53;6.13;;;3.65;;
62353;SDS011;48391;49.184;2.418;2023-12-04T05:40:19;4.18;;;2.55;;
62353;SDS011;48391;49.184;2.418;2023-12-04T05:42:45;3.05;;;2.55;;
62353;SDS011;48391;49.184;2.418;2023-12-04T05:45:11;4.65;;;3.13;;
62353;SDS011;48391;49.184;2.418;2023-12-04T05:47:37;9.38;;;2.67;;
62353;SDS011;48391;49.184;2.418;2023-12-04T05:50:03;6.63;;;3.40;;
62353;SDS011;48391;49.184;2.418;2023-12-04T05:52:29;3.83;;;2.53;;
62353;SDS011;48391;49.184;2.418;2023-12-04T05:54:55;5.32;;;3.13;;
62353;SDS011;48391;49.184;2.418;2023-12-04T05:57:21;4.15;;;2.63;;
62353;SDS011;48391;49.184;2.418;2023-12-04T05:59:47;3.95;;;2.63;;
62353;SDS011;48391;49.184;2.418;2023-12-04T06:02:13;3.15;;;2.42;;
62353;SDS011;48391;49.184;2.418;2023-12-04T06:04:40;3.40;;;2.97;;
62353;SDS011;48391;49.184;2.418;2023-12-04T06:07:07;5.65;;;2.67;;
62353;SDS011;48391;49.184;2.418;2023-12-04T06:09:33;4.25;;;2.60;;
62353;SDS011;48391;49.184;2.418;2023-12-04T06:12:01;3.63;;;1.90;;
62353;SDS011;48391;49.184;2.418;2023-12-04T06:14:33;6.03;;;2.90;;
62353;SDS011;48391;49.184;2.418;2023-12-04T06:16:59;4.72;;;2.50;;
62353;SDS011;48391;49.184;2.418;2023-12-04T06:19:25;5.53;;;2.67;;
62353;SDS011;48391;49.184;2.418;2023-12-04T06:21:51;3.15;;;2.28;;
62353;SDS011;48391;49.184;2.418;2023-12-04T06:24:17;4.60;;;2.28;;
62353;SDS011;48391;49.184;2.418;2023-12-04T06:26:44;4.20;;;2.60;;
62353;SDS011;48391;49.184;2.418;2023-12-04T06:29:14;4.00;;;2.75;;
62353;SDS011;48391;49.184;2.418;2023-12-04T06:31:41;2.40;;;2.08;;
62353;SDS011;48391;49.184;2.418;2023-12-04T06:34:07;3.65;;;2.50;;
62353;SDS011;48391;49.184;2.418;2023-12-04T06:36:35;5.38;;;2.60;;
62353;SDS011;48391;49.184;2.418;2023-12-04T06:39:03;5.07;;;2.65;;
62353;SDS011;48391;49.184;2.418;2023-12-04T06:41:29;4.55;;;2.88;;
62353;SDS011;48391;49.184;2.418;2023-12-04T06:43:55;3.42;;;2.30;;
62353;SDS011;48391;49.184;2.418;2023-12-04T06:46:22;2.72;;;2.30;;
62353;SDS011;48391;49.184;2.418;2023-12-04T06:48:49;4.72;;;2.67;;
62353;SDS011;48391;49.184;2.418;2023-12-04T06:51:19;6.05;;;2.60;;
62353;SDS011;48391;49.184;2.418;2023-12-04T06:53:45;4.35;;;1.88;;
62353;SDS011;48391;49.184;2.418;2023-12-04T06:56:11;3.83;;;1.85;;
62353;SDS011;48391;49.184;2.418;2023-12-04T06:58:37;3.30;;;2.22;;
62353;SDS011;48391;49.184;2.418;2023-12-04T07:01:03;2.72;;;1.95;;
62353;SDS011;48391;49.184;2.418;2023-12-04T07:03:29;3.08;;;2.05;;
62353;SDS011;48391;49.184;2.418;2023-12-04T07:05:55;3.22;;;2.28;;
62353;SDS011;48391;49.184;2.418;2023-12-04T07:08:21;2.95;;;2.25;;
62353;SDS011;48391;49.184;2.418;2023-12-04T07:10:47;4.22;;;2.83;;
62353;SDS011;48391;49.184;2.418;2023-12-04T07:13:14;3.15;;;1.88;;
62353;SDS011;48391;49.184;2.418;2023-12-04T07:15:40;3.42;;;1.80;;
62353;SDS011;48391;49.184;2.418;2023-12-04T07:18:06;3.50;;;2.67;;
62353;SDS011;48391;49.184;2.418;2023-12-04T07:20:32;3.70;;;2.30;;
62353;SDS011;48391;49.184;2.418;2023-12-04T07:22:58;3.38;;;2.28;;
62353;SDS011;48391;49.184;2.418;2023-12-04T07:25:24;3.75;;;2.13;;
62353;SDS011;48391;49.184;2.418;2023-12-04T07:27:50;2.72;;;2.00;;
62353;SDS011;48391;49.184;2.418;2023-12-04T07:30:16;1.95;;;1.25;;
62353;SDS011;48391;49.184;2.418;2023-12-04T07:32:42;2.03;;;1.83;;
62353;SDS011;48391;49.184;2.418;2023-12-04T07:35:08;4.25;;;2.28;;
62353;SDS011;48391;49.184;2.418;2023-12-04T07:37:35;2.08;;;1.63;;
62353;SDS011;48391;49.184;2.418;2023-12-04T07:40:00;2.35;;;1.63;;
62353;SDS011;48391;49.184;2.418;2023-12-04T07:42:27;3.25;;;2.10;;
62353;SDS011;48391;49.184;2.418;2023-12-04T07:44:53;3.45;;;2.50;;
62353;SDS011;48391;49.184;2.418;2023-12-04T07:47:19;3.55;;;2.60;;
62353;SDS011;48391;49.184;2.418;2023-12-04T07:49:45;4.25;;;1.73;;
62353;SDS011;48391;49.184;2.418;2023-12-04T07:52:11;1.88;;;1.73;;
62353;SDS011;48391;49.184;2.418;2023-12-04T07:54:37;2.58;;;1.63;;
62353;SDS011;48391;49.184;2.418;2023-12-04T07:57:03;2.80;;;2.35;;
62353;SDS011;48391;49.184;2.418;2023-12-04T07:59:29;1.70;;;1.40;;
62353;SDS011;48391;49.184;2.418;2023-12-04T08:01:55;2.90;;;1.83;;
62353;SDS011;48391;49.184;2.418;2023-12-04T08:04:21;3.50;;;1.73;;
62353;SDS011;48391;49.184;2.418;2023-12-04T08:06:48;1.40;;;1.30;;
62353;SDS011;48391;49.184;2.418;2023-12-04T08:09:15;1.00;;;0.82;;
62353;SDS011;48391;49.184;2.418;2023-12-04T08:11:41;2.30;;;1.38;;
62353;SDS011;48391;49.184;2.418;2023-12-04T08:14:07;2.17;;;1.40;;
62353;SDS011;48391;49.184;2.418;2023-12-04T08:16:33;2.22;;;1.23;;
62353;SDS011;48391;49.184;2.418;2023-12-04T08:18:59;2.22;;;1.70;;
62353;SDS011;48391;49.184;2.418;2023-12-04T08:21:25;4.22;;;1.65;;
62353;SDS011;48391;49.184;2.418;2023-12-04T08:23:51;4.07;;;1.65;;
62353;SDS011;48391;49.184;2.418;2023-12-04T08:26:24;2.80;;;1.63;;
62353;SDS011;48391;49.184;2.418;2023-12-04T08:28:53;2.00;;;1.70;;
62353;SDS011;48391;49.184;2.418;2023-12-04T08:31:19;1.23;;;0.98;;
62353;SDS011;48391;49.184;2.418;2023-12-04T08:33:45;2.00;;;1.40;;
62353;SDS011;48391;49.184;2.418;2023-12-04T08:36:11;3.40;;;1.33;;
62353;SDS011;48391;49.184;2.418;2023-12-04T08:38:38;3.22;;;2.03;;
62353;SDS011;48391;49.184;2.418;2023-12-04T08:41:04;1.33;;;1.23;;
62353;SDS011;48391;49.184;2.418;2023-12-04T08:43:30;1.25;;;0.95;;
62353;SDS011;48391;49.184;2.418;2023-12-04T08:45:56;1.77;;;1.48;;
62353;SDS011;48391;49.184;2.418;2023-12-04T08:48:22;2.92;;;1.73;;
62353;SDS011;48391;49.184;2.418;2023-12-04T08:50:48;2.03;;;1.58;;
62353;SDS011;48391;49.184;2.418;2023-12-04T08:53:14;3.33;;;2.35;;
62353;SDS011;48391;49.184;2.418;2023-12-04T08:55:40;2.22;;;1.30;;
62353;SDS011;48391;49.184;2.418;2023-12-04T08:58:06;1.38;;;1.27;;
62353;SDS011;48391;49.184;2.418;2023-12-04T09:00:32;1.92;;;1.40;;
62353;SDS011;48391;49.184;2.418;2023-12-04T09:03:00;3.25;;;1.70;;
62353;SDS011;48391;49.184;2.418;2023-12-04T09:05:26;1.10;;;0.95;;
62353;SDS011;48391;49.184;2.418;2023-12-04T09:07:53;2.78;;;0.85;;
62353;SDS011;48391;49.184;2.418;2023-12-04T09:10:19;2.15;;;1.42;;
62353;SDS011;48391;49.184;2.418;2023-12-04T09:12:45;2.38;;;1.40;;
62353;SDS011;48391;49.184;2.418;2023-12-04T09:15:11;2.75;;;1.13;;
62353;SDS011;48391;49.184;2.418;2023-12-04T09:17:37;3.47;;;1.25;;
62353;SDS011;48391;49.184;2.418;2023-12-04T09:20:04;1.55;;;1.45;;
62353;SDS011;48391;49.184;2.418;2023-12-04T09:22:30;1.60;;;1.30;;
62353;SDS011;48391;49.184;2.418;2023-12-04T09:24:57;2.45;;;1.58;;
62353;SDS011;48391;49.184;2.418;2023-12-04T09:27:23;3.38;;;1.50;;
62353;SDS011;48391;49.184;2.418;2023-12-04T09:29:49;3.15;;;1.88;;
62353;SDS011;48391;49.184;2.418;2023-12-04T09:32:15;1.20;;;0.88;;
62353;SDS011;48391;49.184;2.418;2023-12-04T09:34:41;1.33;;;1.20;;
62353;SDS011;48391;49.184;2.418;2023-12-04T09:37:07;1.73;;;1.52;;
62353;SDS011;48391;49.184;2.418;2023-12-04T09:39:33;1.60;;;1.48;;
62353;SDS011;48391;49.184;2.418;2023-12-04T09:41:59;2.30;;;1.50;;
62353;SDS011;48391;49.184;2.418;2023-12-04T09:44:25;2.05;;;1.40;;
62353;SDS011;48391;49.184;2.418;2023-12-04T09:46:54;4.63;;;1.50;;
62353;SDS011;48391;49.184;2.418;2023-12-04T09:49:20;1.83;;;1.45;;
62353;SDS011;48391;49.184;2.418;2023-12-04T09:51:46;3.15;;;1.80;;
62353;SDS011;48391;49.184;2.418;2023-12-04T09:54:12;7.32;;;2.35;;
62353;SDS011;48391;49.184;2.418;2023-12-04T09:56:40;2.50;;;1.23;;
62353;SDS011;48391;49.184;2.418;2023-12-04T09:59:06;2.38;;;1.20;;
62353;SDS011;48391;49.184;2.418;2023-12-04T10:01:33;1.70;;;1.20;;
62353;SDS011;48391;49.184;2.418;2023-12-04T10:04:00;1.58;;;1.10;;
62353;SDS011;48391;49.184;2.418;2023-12-04T10:06:30;3.15;;;2.13;;
62353;SDS011;48391;49.184;2.418;2023-12-04T10:08:56;1.83;;;1.63;;
62353;SDS011;48391;49.184;2.418;2023-12-04T10:11:23;3.05;;;1.40;;
62353;SDS011;48391;49.184;2.418;2023-12-04T10:13:50;1.90;;;1.67;;
62353;SDS011;48391;49.184;2.418;2023-12-04T10:16:37;3.00;;;1.30;;
62353;SDS011;48391;49.184;2.418;2023-12-04T10:19:18;2.22;;;1.35;;
62353;SDS011;48391;49.184;2.418;2023-12-04T10:21:45;1.27;;;1.23;;
62353;SDS011;48391;49.184;2.418;2023-12-04T10:24:11;1.75;;;1.10;;
62353;SDS011;48391;49.184;2.418;2023-12-04T10:26:38;3.13;;;1.65;;
62353;SDS011;48391;49.184;2.418;2023-12-04T10:29:05;2.25;;;1.60;;
62353;SDS011;48391;49.184;2.418;2023-12-04T10:31:32;3.22;;;1.33;;
62353;SDS011;48391;49.184;2.418;2023-12-04T10:33:58;3.60;;;2.20;;
62353;SDS011;48391;49.184;2.418;2023-12-04T10:36:25;1.95;;;1.63;;
62353;SDS011;48391;49.184;2.418;2023-12-04T10:39:00;2.33;;;1.30;;
62353;SDS011;48391;49.184;2.418;2023-12-04T10:41:29;1.75;;;1.10;;
62353;SDS011;48391;49.184;2.418;2023-12-04T10:43:56;3.55;;;1.77;;
62353;SDS011;48391;49.184;2.418;2023-12-04T10:46:26;2.53;;;1.75;;
62353;SDS011;48391;49.184;2.418;2023-12-04T10:48:53;4.45;;;1.58;;
62353;SDS011;48391;49.184;2.418;2023-12-04T10:51:19;3.00;;;1.17;;
62353;SDS011;48391;49.184;2.418;2023-12-04T10:53:48;1.50;;;1.17;;
62353;SDS011;48391;49.184;2.418;2023-12-04T10:56:15;1.88;;;1.50;;
62353;SDS011;48391;49.184;2.418;2023-12-04T10:58:44;1.88;;;1.23;;
62353;SDS011;48391;49.184;2.418;2023-12-04T11:01:13;3.63;;;1.33;;
62353;SDS011;48391;49.184;2.418;2023-12-04T11:03:47;2.15;;;1.67;;
62353;SDS011;48391;49.184;2.418;2023-12-04T11:06:14;4.03;;;2.10;;
62353;SDS011;48391;49.184;2.418;2023-12-04T11:08:42;2.00;;;1.45;;
62353;SDS011;48391;49.184;2.418;2023-12-04T11:11:11;2.85;;;1.85;;
62353;SDS011;48391;49.184;2.418;2023-12-04T11:13:39;7.68;;;2.00;;
62353;SDS011;48391;49.184;2.418;2023-12-04T11:18:42;2.97;;;1.77;;
62353;SDS011;48391;49.184;2.418;2023-12-04T11:21:09;1.83;;;1.25;;
62353;SDS011;48391;49.184;2.418;2023-12-04T11:23:36;1.95;;;1.42;;
62353;SDS011;48391;49.184;2.418;2023-12-04T11:26:03;2.05;;;1.63;;
62353;SDS011;48391;49.184;2.418;2023-12-04T11:28:30;1.52;;;1.25;;
62353;SDS011;48391;49.184;2.418;2023-12-04T11:30:57;1.73;;;1.35;;
62353;SDS011;48391;49.184;2.418;2023-12-04T11:33:23;2.40;;;1.42;;
62353;SDS011;48391;49.184;2.418;2023-12-04T11:35:50;2.30;;;1.20;;
62353;SDS011;48391;49.184;2.418;2023-12-04T11:38:16;1.73;;;1.27;;
62353;SDS011;48391;49.184;2.418;2023-12-04T11:40:42;3.30;;;1.30;;
62353;SDS011;48391;49.184;2.418;2023-12-04T11:43:21;2.08;;;1.88;;
62353;SDS011;48391;49.184;2.418;2023-12-04T11:45:47;1.27;;;1.00;;
62353;SDS011;48391;49.184;2.418;2023-12-04T11:48:14;1.77;;;1.60;;
62353;SDS011;48391;49.184;2.418;2023-12-04T11:50:40;2.70;;;1.58;;
62353;SDS011;48391;49.184;2.418;2023-12-04T11:53:09;1.98;;;1.10;;
62353;SDS011;48391;49.184;2.418;2023-12-04T11:55:36;3.67;;;1.55;;
62353;SDS011;48391;49.184;2.418;2023-12-04T11:58:08;2.67;;;1.20;;
62353;SDS011;48391;49.184;2.418;2023-12-04T12:00:35;1.98;;;0.77;;
62353;SDS011;48391;49.184;2.418;2023-12-04T12:03:02;1.92;;;1.45;;
62353;SDS011;48391;49.184;2.418;2023-12-04T12:05:31;3.47;;;1.55;;
62353;SDS011;48391;49.184;2.418;2023-12-04T12:07:59;2.25;;;1.50;;
62353;SDS011;48391;49.184;2.418;2023-12-04T12:10:25;1.48;;;1.05;;
62353;SDS011;48391;49.184;2.418;2023-12-04T12:12:52;3.38;;;1.50;;
62353;SDS011;48391;49.184;2.418;2023-12-04T12:15:18;1.90;;;1.08;;
62353;SDS011;48391;49.184;2.418;2023-12-04T12:17:44;2.33;;;1.38;;
62353;SDS011;48391;49.184;2.418;2023-12-04T12:20:11;1.08;;;1.00;;
62353;SDS011;48391;49.184;2.418;2023-12-04T12:22:37;4.55;;;1.92;;
62353;SDS011;48391;49.184;2.418;2023-12-04T12:25:09;1.20;;;0.90;;
62353;SDS011;48391;49.184;2.418;2023-12-04T12:27:36;1.52;;;1.30;;
62353;SDS011;48391;49.184;2.418;2023-12-04T12:30:02;1.65;;;0.98;;
62353;SDS011;48391;49.184;2.418;2023-12-04T12:32:30;1.40;;;0.90;;
62353;SDS011;48391;49.184;2.418;2023-12-04T12:34:56;1.63;;;1.38;;
62353;SDS011;48391;49.184;2.418;2023-12-04T12:37:22;2.72;;;1.10;;
62353;SDS011;48391;49.184;2.418;2023-12-04T12:39:48;4.97;;;1.17;;
62353;SDS011;48391;49.184;2.418;2023-12-04T12:42:25;4.93;;;1.75;;
62353;SDS011;48391;49.184;2.418;2023-12-04T12:44:51;2.08;;;1.52;;
62353;SDS011;48391;49.184;2.418;2023-12-04T12:47:18;2.58;;;1.58;;
62353;SDS011;48391;49.184;2.418;2023-12-04T12:49:44;2.65;;;1.60;;
62353;SDS011;48391;49.184;2.418;2023-12-04T12:52:10;2.05;;;1.63;;
62353;SDS011;48391;49.184;2.418;2023-12-04T12:54:43;2.47;;;1.20;;
62353;SDS011;48391;49.184;2.418;2023-12-04T12:57:11;2.58;;;1.02;;
62353;SDS011;48391;49.184;2.418;2023-12-04T12:59:40;2.55;;;1.70;;
62353;SDS011;48391;49.184;2.418;2023-12-04T13:02:07;2.95;;;2.13;;
62353;SDS011;48391;49.184;2.418;2023-12-04T13:04:34;1.40;;;1.30;;
62353;SDS011;48391;49.184;2.418;2023-12-04T13:07:00;4.70;;;1.42;;
62353;SDS011;48391;49.184;2.418;2023-12-04T13:09:27;3.22;;;1.38;;
62353;SDS011;48391;49.184;2.418;2023-12-04T13:11:53;1.55;;;1.40;;
62353;SDS011;48391;49.184;2.418;2023-12-04T13:14:20;1.45;;;1.30;;
62353;SDS011;48391;49.184;2.418;2023-12-04T13:16:46;2.13;;;1.60;;
62353;SDS011;48391;49.184;2.418;2023-12-04T13:19:12;1.75;;;1.27;;
62353;SDS011;48391;49.184;2.418;2023-12-04T13:21:38;1.48;;;1.38;;
62353;SDS011;48391;49.184;2.418;2023-12-04T13:24:04;1.80;;;1.70;;
62353;SDS011;48391;49.184;2.418;2023-12-04T13:26:33;1.67;;;1.38;;
62353;SDS011;48391;49.184;2.418;2023-12-04T13:28:59;3.15;;;1.00;;
62353;SDS011;48391;49.184;2.418;2023-12-04T13:31:26;1.38;;;1.27;;
62353;SDS011;48391;49.184;2.418;2023-12-04T13:33:53;1.60;;;1.40;;
62353;SDS011;48391;49.184;2.418;2023-12-04T13:36:19;3.10;;;1.40;;
62353;SDS011;48391;49.184;2.418;2023-12-04T13:38:45;1.88;;;1.40;;
62353;SDS011;48391;49.184;2.418;2023-12-04T13:41:11;1.73;;;1.30;;
62353;SDS011;48391;49.184;2.418;2023-12-04T13:43:56;4.38;;;1.95;;
62353;SDS011;48391;49.184;2.418;2023-12-04T13:46:24;3.65;;;1.45;;
62353;SDS011;48391;49.184;2.418;2023-12-04T13:48:51;1.27;;;1.13;;
62353;SDS011;48391;49.184;2.418;2023-12-04T13:51:17;2.67;;;1.13;;
62353;SDS011;48391;49.184;2.418;2023-12-04T13:53:45;2.08;;;1.35;;
62353;SDS011;48391;49.184;2.418;2023-12-04T13:56:14;1.63;;;1.33;;
62353;SDS011;48391;49.184;2.418;2023-12-04T13:58:49;3.80;;;1.10;;
62353;SDS011;48391;49.184;2.418;2023-12-04T14:01:24;2.15;;;1.33;;
62353;SDS011;48391;49.184;2.418;2023-12-04T14:03:53;2.78;;;1.70;;
62353;SDS011;48391;49.184;2.418;2023-12-04T14:06:19;2.00;;;1.27;;
62353;SDS011;48391;49.184;2.418;2023-12-04T14:08:45;1.45;;;1.35;;
62353;SDS011;48391;49.184;2.418;2023-12-04T14:11:11;2.45;;;1.33;;
62353;SDS011;48391;49.184;2.418;2023-12-04T14:13:39;1.95;;;1.50;;
62353;SDS011;48391;49.184;2.418;2023-12-04T14:16:06;3.15;;;1.30;;
62353;SDS011;48391;49.184;2.418;2023-12-04T14:18:32;2.05;;;1.05;;
62353;SDS011;48391;49.184;2.418;2023-12-04T14:20:59;4.90;;;2.30;;
62353;SDS011;48391;49.184;2.418;2023-12-04T14:23:25;2.20;;;1.30;;
62353;SDS011;48391;49.184;2.418;2023-12-04T14:25:51;3.13;;;0.98;;
62353;SDS011;48391;49.184;2.418;2023-12-04T14:28:17;2.35;;;1.30;;
62353;SDS011;48391;49.184;2.418;2023-12-04T14:30:43;3.95;;;1.38;;
62353;SDS011;48391;49.184;2.418;2023-12-04T14:33:09;1.55;;;1.45;;
62353;SDS011;48391;49.184;2.418;2023-12-04T14:35:35;2.05;;;1.10;;
62353;SDS011;48391;49.184;2.418;2023-12-04T14:38:02;4.22;;;1.45;;
62353;SDS011;48391;49.184;2.418;2023-12-04T14:40:28;2.70;;;1.77;;
62353;SDS011;48391;49.184;2.418;2023-12-04T14:42:55;5.10;;;2.55;;
62353;SDS011;48391;49.184;2.418;2023-12-04T14:45:21;2.42;;;1.70;;
62353;SDS011;48391;49.184;2.418;2023-12-04T14:47:47;2.00;;;1.30;;
62353;SDS011;48391;49.184;2.418;2023-12-04T14:50:16;4.15;;;2.55;;